Clovis/Cannon AFB, New Mexico
Current Conditions -  °F | °C
As of 5:58 PM on Monday 24 Nov 2014 (Local Time) from KCVS Reporting Station
Clear Clear  
Wind Chill: 27°   Ceiling: Unl
Heat Index: 35°   Visibility: 10mi
Dew Point:   Wind: 9mph
Humidity: 33%   Direction: 20°NNE
Pressure: 30.09"   Gusts: NA
Location:  34.38°N, 103.32°W
Report Text: KCVS 250058Z AUTO 02008KT 10SM CLR 01/M13 A3009 RMK AO2 SLP206 T00141132 $
Loading
Personal Weather Stations






























Interactive Weather Map New forecast layout! Learn more

10-Day Weather Forecast

Advertisements
Track Severe Weather on mobile